sensor_id;sensor_type;location;lat;lon;timestamp;temperature;humidity
17452;DHT22;8843;48.838;9.324;2023-07-31T00:01:56;20.50;79.10
17452;DHT22;8843;48.838;9.324;2023-07-31T00:04:23;20.50;79.20
17452;DHT22;8843;48.838;9.324;2023-07-31T00:06:50;20.50;79.10
17452;DHT22;8843;48.838;9.324;2023-07-31T00:09:17;20.50;79.20
17452;DHT22;8843;48.838;9.324;2023-07-31T00:11:45;20.50;79.40
17452;DHT22;8843;48.838;9.324;2023-07-31T00:14:12;20.50;79.10
17452;DHT22;8843;48.838;9.324;2023-07-31T00:16:39;20.50;79.20
17452;DHT22;8843;48.838;9.324;2023-07-31T00:19:06;20.50;79.20
17452;DHT22;8843;48.838;9.324;2023-07-31T00:21:33;20.50;79.20
17452;DHT22;8843;48.838;9.324;2023-07-31T00:23:59;20.50;79.90
17452;DHT22;8843;48.838;9.324;2023-07-31T00:26:26;20.50;79.90
17452;DHT22;8843;48.838;9.324;2023-07-31T00:28:54;20.50;79.20
17452;DHT22;8843;48.838;9.324;2023-07-31T00:31:21;20.50;79.10
17452;DHT22;8843;48.838;9.324;2023-07-31T00:33:48;20.50;79.10
17452;DHT22;8843;48.838;9.324;2023-07-31T00:36:15;20.50;79.10
17452;DHT22;8843;48.838;9.324;2023-07-31T00:38:43;20.40;79.00
17452;DHT22;8843;48.838;9.324;2023-07-31T00:41:10;20.50;79.10
17452;DHT22;8843;48.838;9.324;2023-07-31T00:43:37;20.50;79.10
17452;DHT22;8843;48.838;9.324;2023-07-31T00:46:05;20.50;79.10
17452;DHT22;8843;48.838;9.324;2023-07-31T00:48:33;20.40;78.90
17452;DHT22;8843;48.838;9.324;2023-07-31T00:51:00;20.50;79.10
17452;DHT22;8843;48.838;9.324;2023-07-31T00:53:28;20.40;78.90
17452;DHT22;8843;48.838;9.324;2023-07-31T00:55:55;20.40;79.10
17452;DHT22;8843;48.838;9.324;2023-07-31T00:58:21;20.40;79.00
17452;DHT22;8843;48.838;9.324;2023-07-31T01:00:49;20.40;79.00
17452;DHT22;8843;48.838;9.324;2023-07-31T01:03:17;20.40;79.60
17452;DHT22;8843;48.838;9.324;2023-07-31T01:05:52;20.40;78.90
17452;DHT22;8843;48.838;9.324;2023-07-31T01:08:29;20.40;79.00
17452;DHT22;8843;48.838;9.324;2023-07-31T01:11:04;20.40;79.00
17452;DHT22;8843;48.838;9.324;2023-07-31T01:13:34;20.40;79.80
17452;DHT22;8843;48.838;9.324;2023-07-31T01:16:01;20.40;79.00
17452;DHT22;8843;48.838;9.324;2023-07-31T01:18:29;20.40;78.70
17452;DHT22;8843;48.838;9.324;2023-07-31T01:21:02;20.40;78.90
17452;DHT22;8843;48.838;9.324;2023-07-31T01:24:08;20.40;78.90
17452;DHT22;8843;48.838;9.324;2023-07-31T01:26:45;20.40;78.90
17452;DHT22;8843;48.838;9.324;2023-07-31T01:29:25;20.30;79.60
17452;DHT22;8843;48.838;9.324;2023-07-31T01:31:53;20.40;78.90
17452;DHT22;8843;48.838;9.324;2023-07-31T01:34:22;20.40;79.00
17452;DHT22;8843;48.838;9.324;2023-07-31T01:36:49;20.30;78.90
17452;DHT22;8843;48.838;9.324;2023-07-31T01:39:16;20.30;78.90
17452;DHT22;8843;48.838;9.324;2023-07-31T01:41:45;20.30;78.80
17452;DHT22;8843;48.838;9.324;2023-07-31T01:44:12;20.30;78.90
17452;DHT22;8843;48.838;9.324;2023-07-31T01:46:38;20.30;78.90
17452;DHT22;8843;48.838;9.324;2023-07-31T01:49:05;20.30;78.90
17452;DHT22;8843;48.838;9.324;2023-07-31T01:51:32;20.30;78.80
17452;DHT22;8843;48.838;9.324;2023-07-31T01:53:59;20.30;78.80
17452;DHT22;8843;48.838;9.324;2023-07-31T01:56:26;20.30;78.90
17452;DHT22;8843;48.838;9.324;2023-07-31T01:58:55;20.30;78.80
17452;DHT22;8843;48.838;9.324;2023-07-31T02:01:21;20.30;78.80
17452;DHT22;8843;48.838;9.324;2023-07-31T02:03:49;20.30;78.80
17452;DHT22;8843;48.838;9.324;2023-07-31T02:06:15;20.30;78.80
17452;DHT22;8843;48.838;9.324;2023-07-31T02:08:42;20.30;78.80
17452;DHT22;8843;48.838;9.324;2023-07-31T02:11:09;20.30;78.80
17452;DHT22;8843;48.838;9.324;2023-07-31T02:13:36;20.30;78.80
17452;DHT22;8843;48.838;9.324;2023-07-31T02:16:05;20.30;78.80
17452;DHT22;8843;48.838;9.324;2023-07-31T02:18:31;20.20;78.70
17452;DHT22;8843;48.838;9.324;2023-07-31T02:20:58;20.30;78.80
17452;DHT22;8843;48.838;9.324;2023-07-31T02:23:25;20.30;78.80
17452;DHT22;8843;48.838;9.324;2023-07-31T02:25:52;20.20;78.80
17452;DHT22;8843;48.838;9.324;2023-07-31T02:28:19;20.20;78.80
17452;DHT22;8843;48.838;9.324;2023-07-31T02:30:46;20.20;78.80
17452;DHT22;8843;48.838;9.324;2023-07-31T02:33:14;20.20;78.80
17452;DHT22;8843;48.838;9.324;2023-07-31T02:35:41;20.20;78.80
17452;DHT22;8843;48.838;9.324;2023-07-31T02:38:08;20.20;78.70
17452;DHT22;8843;48.838;9.324;2023-07-31T02:40:35;20.20;79.40
17452;DHT22;8843;48.838;9.324;2023-07-31T02:43:02;20.20;78.80
17452;DHT22;8843;48.838;9.324;2023-07-31T02:45:29;20.20;78.80
17452;DHT22;8843;48.838;9.324;2023-07-31T02:47:56;20.20;78.70
17452;DHT22;8843;48.838;9.324;2023-07-31T02:50:24;20.20;78.70
17452;DHT22;8843;48.838;9.324;2023-07-31T02:52:51;20.20;78.80
17452;DHT22;8843;48.838;9.324;2023-07-31T02:55:18;20.20;78.80
17452;DHT22;8843;48.838;9.324;2023-07-31T02:57:45;20.20;79.60
17452;DHT22;8843;48.838;9.324;2023-07-31T03:00:13;20.20;78.80
17452;DHT22;8843;48.838;9.324;2023-07-31T03:02:39;20.20;78.80
17452;DHT22;8843;48.838;9.324;2023-07-31T03:05:07;20.20;78.90
17452;DHT22;8843;48.838;9.324;2023-07-31T03:07:35;20.20;79.70
17452;DHT22;8843;48.838;9.324;2023-07-31T03:10:02;20.20;78.90
17452;DHT22;8843;48.838;9.324;2023-07-31T03:12:29;20.20;78.70
17452;DHT22;8843;48.838;9.324;2023-07-31T03:14:56;20.20;78.80
17452;DHT22;8843;48.838;9.324;2023-07-31T03:17:23;20.20;79.50
17452;DHT22;8843;48.838;9.324;2023-07-31T03:19:50;20.10;78.70
17452;DHT22;8843;48.838;9.324;2023-07-31T03:22:17;20.10;78.70
17452;DHT22;8843;48.838;9.324;2023-07-31T03:24:45;20.10;78.70
17452;DHT22;8843;48.838;9.324;2023-07-31T03:27:12;20.10;78.70
17452;DHT22;8843;48.838;9.324;2023-07-31T03:29:39;20.10;78.70
17452;DHT22;8843;48.838;9.324;2023-07-31T03:32:06;20.10;78.70
17452;DHT22;8843;48.838;9.324;2023-07-31T03:34:33;20.10;78.60
17452;DHT22;8843;48.838;9.324;2023-07-31T03:37:00;20.10;78.70
17452;DHT22;8843;48.838;9.324;2023-07-31T03:39:27;20.10;78.70
17452;DHT22;8843;48.838;9.324;2023-07-31T03:41:55;20.10;78.70
17452;DHT22;8843;48.838;9.324;2023-07-31T03:44:22;20.10;79.40
17452;DHT22;8843;48.838;9.324;2023-07-31T03:46:48;20.10;78.70
17452;DHT22;8843;48.838;9.324;2023-07-31T03:49:15;20.10;78.70
17452;DHT22;8843;48.838;9.324;2023-07-31T03:51:42;20.10;78.70
17452;DHT22;8843;48.838;9.324;2023-07-31T03:54:10;20.10;78.70
17452;DHT22;8843;48.838;9.324;2023-07-31T03:56:38;20.10;78.70
17452;DHT22;8843;48.838;9.324;2023-07-31T03:59:06;20.10;78.70
17452;DHT22;8843;48.838;9.324;2023-07-31T04:01:33;20.10;78.70
17452;DHT22;8843;48.838;9.324;2023-07-31T04:04:00;20.10;78.70
17452;DHT22;8843;48.838;9.324;2023-07-31T04:06:27;20.10;78.60
17452;DHT22;8843;48.838;9.324;2023-07-31T04:08:54;20.10;79.40
17452;DHT22;8843;48.838;9.324;2023-07-31T04:11:21;20.10;78.70
17452;DHT22;8843;48.838;9.324;2023-07-31T04:13:48;20.10;78.70
17452;DHT22;8843;48.838;9.324;2023-07-31T04:16:16;20.10;78.70
17452;DHT22;8843;48.838;9.324;2023-07-31T04:18:43;20.00;79.00
17452;DHT22;8843;48.838;9.324;2023-07-31T04:21:10;20.00;78.80
17452;DHT22;8843;48.838;9.324;2023-07-31T04:23:37;20.00;78.70
17452;DHT22;8843;48.838;9.324;2023-07-31T04:26:04;20.00;78.60
17452;DHT22;8843;48.838;9.324;2023-07-31T04:28:31;20.00;78.60
17452;DHT22;8843;48.838;9.324;2023-07-31T04:30:58;20.10;79.40
17452;DHT22;8843;48.838;9.324;2023-07-31T04:33:26;20.00;78.60
17452;DHT22;8843;48.838;9.324;2023-07-31T04:35:53;20.10;78.70
17452;DHT22;8843;48.838;9.324;2023-07-31T04:38:21;20.00;78.60
17452;DHT22;8843;48.838;9.324;2023-07-31T04:40:48;20.00;78.60
17452;DHT22;8843;48.838;9.324;2023-07-31T04:43:15;20.00;79.40
17452;DHT22;8843;48.838;9.324;2023-07-31T04:45:44;20.00;78.60
17452;DHT22;8843;48.838;9.324;2023-07-31T04:48:11;19.90;74.70
17452;DHT22;8843;48.838;9.324;2023-07-31T04:50:39;19.80;79.80
17452;DHT22;8843;48.838;9.324;2023-07-31T04:53:06;19.90;79.10
17452;DHT22;8843;48.838;9.324;2023-07-31T04:55:33;19.90;79.00
17452;DHT22;8843;48.838;9.324;2023-07-31T04:58:00;20.00;78.90
17452;DHT22;8843;48.838;9.324;2023-07-31T05:00:27;20.00;78.90
17452;DHT22;8843;48.838;9.324;2023-07-31T05:02:54;20.00;78.80
17452;DHT22;8843;48.838;9.324;2023-07-31T05:05:21;20.00;78.80
17452;DHT22;8843;48.838;9.324;2023-07-31T05:07:49;20.00;78.80
17452;DHT22;8843;48.838;9.324;2023-07-31T05:10:16;20.00;79.50
17452;DHT22;8843;48.838;9.324;2023-07-31T05:12:43;20.00;78.80
17452;DHT22;8843;48.838;9.324;2023-07-31T05:15:10;19.90;78.70
17452;DHT22;8843;48.838;9.324;2023-07-31T05:17:37;20.00;79.50
17452;DHT22;8843;48.838;9.324;2023-07-31T05:20:04;20.00;78.70
17452;DHT22;8843;48.838;9.324;2023-07-31T05:22:31;19.90;78.70
17452;DHT22;8843;48.838;9.324;2023-07-31T05:25:00;19.90;78.40
17452;DHT22;8843;48.838;9.324;2023-07-31T05:27:26;19.90;78.80
17452;DHT22;8843;48.838;9.324;2023-07-31T05:29:53;19.90;78.20
17452;DHT22;8843;48.838;9.324;2023-07-31T05:32:20;19.80;78.80
17452;DHT22;8843;48.838;9.324;2023-07-31T05:34:47;19.90;78.60
17452;DHT22;8843;48.838;9.324;2023-07-31T05:37:14;19.80;78.00
17452;DHT22;8843;48.838;9.324;2023-07-31T05:39:41;19.90;78.70
17452;DHT22;8843;48.838;9.324;2023-07-31T05:42:09;19.90;78.70
17452;DHT22;8843;48.838;9.324;2023-07-31T05:44:45;19.90;78.60
17452;DHT22;8843;48.838;9.324;2023-07-31T05:47:24;19.70;81.00
17452;DHT22;8843;48.838;9.324;2023-07-31T05:49:51;19.50;74.80
17452;DHT22;8843;48.838;9.324;2023-07-31T05:52:18;19.60;78.40
17452;DHT22;8843;48.838;9.324;2023-07-31T05:54:45;19.60;77.10
17452;DHT22;8843;48.838;9.324;2023-07-31T05:57:13;19.70;77.00
17452;DHT22;8843;48.838;9.324;2023-07-31T05:59:40;19.70;77.00
17452;DHT22;8843;48.838;9.324;2023-07-31T06:02:07;19.70;76.80
17452;DHT22;8843;48.838;9.324;2023-07-31T06:04:34;19.70;77.10
17452;DHT22;8843;48.838;9.324;2023-07-31T06:07:01;19.70;76.70
17452;DHT22;8843;48.838;9.324;2023-07-31T06:09:29;19.60;76.70
17452;DHT22;8843;48.838;9.324;2023-07-31T06:11:56;19.60;76.90
17452;DHT22;8843;48.838;9.324;2023-07-31T06:14:24;19.70;76.90
17452;DHT22;8843;48.838;9.324;2023-07-31T06:16:51;19.70;76.70
17452;DHT22;8843;48.838;9.324;2023-07-31T06:19:18;19.60;75.10
17452;DHT22;8843;48.838;9.324;2023-07-31T06:21:45;19.30;75.00
17452;DHT22;8843;48.838;9.324;2023-07-31T06:24:12;19.40;76.10
17452;DHT22;8843;48.838;9.324;2023-07-31T06:26:44;19.40;80.50
17452;DHT22;8843;48.838;9.324;2023-07-31T06:29:11;19.30;75.30
17452;DHT22;8843;48.838;9.324;2023-07-31T06:31:40;19.20;78.20
17452;DHT22;8843;48.838;9.324;2023-07-31T06:34:07;19.50;78.10
17452;DHT22;8843;48.838;9.324;2023-07-31T06:36:34;19.70;79.10
17452;DHT22;8843;48.838;9.324;2023-07-31T06:39:01;19.80;79.10
17452;DHT22;8843;48.838;9.324;2023-07-31T06:41:29;19.60;76.50
17452;DHT22;8843;48.838;9.324;2023-07-31T06:43:56;19.70;78.00
17452;DHT22;8843;48.838;9.324;2023-07-31T06:46:23;19.70;77.20
17452;DHT22;8843;48.838;9.324;2023-07-31T06:48:51;19.70;76.90
17452;DHT22;8843;48.838;9.324;2023-07-31T06:51:18;19.70;78.00
17452;DHT22;8843;48.838;9.324;2023-07-31T06:53:45;19.70;78.10
17452;DHT22;8843;48.838;9.324;2023-07-31T06:56:11;19.70;77.30
17452;DHT22;8843;48.838;9.324;2023-07-31T06:58:38;19.70;77.90
17452;DHT22;8843;48.838;9.324;2023-07-31T07:01:05;19.70;77.60
17452;DHT22;8843;48.838;9.324;2023-07-31T07:03:32;19.70;77.80
17452;DHT22;8843;48.838;9.324;2023-07-31T07:06:01;19.70;77.30
17452;DHT22;8843;48.838;9.324;2023-07-31T07:08:27;19.60;76.90
17452;DHT22;8843;48.838;9.324;2023-07-31T07:10:54;19.60;77.90
17452;DHT22;8843;48.838;9.324;2023-07-31T07:13:21;19.60;76.30
17452;DHT22;8843;48.838;9.324;2023-07-31T07:15:48;19.60;77.00
17452;DHT22;8843;48.838;9.324;2023-07-31T07:18:15;19.60;77.30
17452;DHT22;8843;48.838;9.324;2023-07-31T07:20:46;19.60;76.30
17452;DHT22;8843;48.838;9.324;2023-07-31T07:23:15;19.70;76.70
17452;DHT22;8843;48.838;9.324;2023-07-31T07:25:42;19.60;76.10
17452;DHT22;8843;48.838;9.324;2023-07-31T07:28:09;19.70;77.50
17452;DHT22;8843;48.838;9.324;2023-07-31T07:30:36;19.70;77.50
17452;DHT22;8843;48.838;9.324;2023-07-31T07:33:03;19.70;76.70
17452;DHT22;8843;48.838;9.324;2023-07-31T07:35:30;19.70;77.00
17452;DHT22;8843;48.838;9.324;2023-07-31T07:37:57;19.70;75.80
17452;DHT22;8843;48.838;9.324;2023-07-31T07:40:25;19.70;75.80
17452;DHT22;8843;48.838;9.324;2023-07-31T07:42:52;19.70;75.80
17452;DHT22;8843;48.838;9.324;2023-07-31T07:45:19;19.80;75.30
17452;DHT22;8843;48.838;9.324;2023-07-31T07:47:46;19.80;76.40
17452;DHT22;8843;48.838;9.324;2023-07-31T07:50:12;19.70;75.70
17452;DHT22;8843;48.838;9.324;2023-07-31T07:52:39;19.80;75.70
17452;DHT22;8843;48.838;9.324;2023-07-31T07:55:07;19.80;75.70
17452;DHT22;8843;48.838;9.324;2023-07-31T07:57:35;19.80;75.80
17452;DHT22;8843;48.838;9.324;2023-07-31T08:00:02;19.80;76.00
17452;DHT22;8843;48.838;9.324;2023-07-31T08:02:29;19.80;75.20
17452;DHT22;8843;48.838;9.324;2023-07-31T08:04:56;19.90;75.70
17452;DHT22;8843;48.838;9.324;2023-07-31T08:07:23;19.90;76.80
17452;DHT22;8843;48.838;9.324;2023-07-31T08:09:50;19.90;75.90
17452;DHT22;8843;48.838;9.324;2023-07-31T08:12:17;19.90;75.30
17452;DHT22;8843;48.838;9.324;2023-07-31T08:14:45;19.90;75.10
17452;DHT22;8843;48.838;9.324;2023-07-31T08:17:12;19.90;75.00
17452;DHT22;8843;48.838;9.324;2023-07-31T08:19:39;20.00;75.80
17452;DHT22;8843;48.838;9.324;2023-07-31T08:22:06;20.00;75.40
17452;DHT22;8843;48.838;9.324;2023-07-31T08:24:33;20.00;75.20
17452;DHT22;8843;48.838;9.324;2023-07-31T08:26:59;20.00;75.40
17452;DHT22;8843;48.838;9.324;2023-07-31T08:29:26;20.00;76.10
17452;DHT22;8843;48.838;9.324;2023-07-31T08:31:55;20.00;75.30
17452;DHT22;8843;48.838;9.324;2023-07-31T08:34:22;20.00;75.50
17452;DHT22;8843;48.838;9.324;2023-07-31T08:36:49;20.00;75.70
17452;DHT22;8843;48.838;9.324;2023-07-31T08:39:16;20.10;76.00
17452;DHT22;8843;48.838;9.324;2023-07-31T08:41:43;20.10;76.00
17452;DHT22;8843;48.838;9.324;2023-07-31T08:44:10;20.10;75.70
17452;DHT22;8843;48.838;9.324;2023-07-31T08:46:38;20.20;75.00
17452;DHT22;8843;48.838;9.324;2023-07-31T08:49:07;20.20;74.60
17452;DHT22;8843;48.838;9.324;2023-07-31T08:51:34;20.20;75.20
17452;DHT22;8843;48.838;9.324;2023-07-31T08:54:01;20.30;75.40
17452;DHT22;8843;48.838;9.324;2023-07-31T08:56:30;20.60;70.30
17452;DHT22;8843;48.838;9.324;2023-07-31T08:58:59;20.60;72.80
17452;DHT22;8843;48.838;9.324;2023-07-31T09:01:30;20.60;73.00
17452;DHT22;8843;48.838;9.324;2023-07-31T09:03:59;20.60;72.50
17452;DHT22;8843;48.838;9.324;2023-07-31T09:06:30;20.60;73.70
17452;DHT22;8843;48.838;9.324;2023-07-31T09:08:58;20.50;74.40
17452;DHT22;8843;48.838;9.324;2023-07-31T09:11:25;20.60;74.30
17452;DHT22;8843;48.838;9.324;2023-07-31T09:13:55;20.60;73.80
17452;DHT22;8843;48.838;9.324;2023-07-31T09:16:27;20.60;73.30
17452;DHT22;8843;48.838;9.324;2023-07-31T09:18:56;20.60;72.20
17452;DHT22;8843;48.838;9.324;2023-07-31T09:21:24;20.60;73.30
17452;DHT22;8843;48.838;9.324;2023-07-31T09:23:54;20.60;72.80
17452;DHT22;8843;48.838;9.324;2023-07-31T09:26:32;20.60;72.60
17452;DHT22;8843;48.838;9.324;2023-07-31T09:28:59;20.70;73.30
17452;DHT22;8843;48.838;9.324;2023-07-31T09:31:33;20.60;73.30
17452;DHT22;8843;48.838;9.324;2023-07-31T09:34:04;20.50;73.50
17452;DHT22;8843;48.838;9.324;2023-07-31T09:36:31;20.60;72.80
17452;DHT22;8843;48.838;9.324;2023-07-31T09:39:02;20.60;73.30
17452;DHT22;8843;48.838;9.324;2023-07-31T09:41:30;20.60;73.70
17452;DHT22;8843;48.838;9.324;2023-07-31T09:43:57;20.70;73.60
17452;DHT22;8843;48.838;9.324;2023-07-31T09:46:27;20.80;72.70
17452;DHT22;8843;48.838;9.324;2023-07-31T09:49:06;20.80;73.30
17452;DHT22;8843;48.838;9.324;2023-07-31T09:51:34;20.80;72.50
17452;DHT22;8843;48.838;9.324;2023-07-31T09:54:09;20.60;74.00
17452;DHT22;8843;48.838;9.324;2023-07-31T09:56:38;20.70;73.20
17452;DHT22;8843;48.838;9.324;2023-07-31T09:59:08;20.60;73.10
17452;DHT22;8843;48.838;9.324;2023-07-31T10:01:37;20.70;72.80
17452;DHT22;8843;48.838;9.324;2023-07-31T10:04:05;20.70;72.80
17452;DHT22;8843;48.838;9.324;2023-07-31T10:06:34;20.70;72.50
17452;DHT22;8843;48.838;9.324;2023-07-31T10:09:03;20.80;73.40
17452;DHT22;8843;48.838;9.324;2023-07-31T10:11:36;20.90;73.70
17452;DHT22;8843;48.838;9.324;2023-07-31T10:14:07;20.80;72.90
17452;DHT22;8843;48.838;9.324;2023-07-31T10:16:39;20.80;72.90
17452;DHT22;8843;48.838;9.324;2023-07-31T10:19:07;20.80;73.00
17452;DHT22;8843;48.838;9.324;2023-07-31T10:21:34;20.70;73.50
17452;DHT22;8843;48.838;9.324;2023-07-31T10:24:04;20.70;73.40
17452;DHT22;8843;48.838;9.324;2023-07-31T10:26:32;20.70;73.90
17452;DHT22;8843;48.838;9.324;2023-07-31T10:29:00;20.60;73.80
17452;DHT22;8843;48.838;9.324;2023-07-31T10:31:27;20.70;74.00
17452;DHT22;8843;48.838;9.324;2023-07-31T10:33:55;20.70;73.60
17452;DHT22;8843;48.838;9.324;2023-07-31T10:36:22;20.70;74.10
17452;DHT22;8843;48.838;9.324;2023-07-31T10:38:49;20.70;73.80
17452;DHT22;8843;48.838;9.324;2023-07-31T10:41:17;20.80;74.30
17452;DHT22;8843;48.838;9.324;2023-07-31T10:43:47;20.80;74.70
17452;DHT22;8843;48.838;9.324;2023-07-31T10:46:14;21.00;72.60
17452;DHT22;8843;48.838;9.324;2023-07-31T10:48:41;21.10;73.50
17452;DHT22;8843;48.838;9.324;2023-07-31T10:51:09;21.10;73.60
17452;DHT22;8843;48.838;9.324;2023-07-31T10:53:38;21.10;73.50
17452;DHT22;8843;48.838;9.324;2023-07-31T10:56:07;21.00;73.20
17452;DHT22;8843;48.838;9.324;2023-07-31T10:58:35;21.10;73.00
17452;DHT22;8843;48.838;9.324;2023-07-31T11:01:05;21.40;72.60
17452;DHT22;8843;48.838;9.324;2023-07-31T11:03:42;21.60;73.10
17452;DHT22;8843;48.838;9.324;2023-07-31T11:06:10;21.70;71.80
17452;DHT22;8843;48.838;9.324;2023-07-31T11:08:42;21.70;72.10
17452;DHT22;8843;48.838;9.324;2023-07-31T11:11:11;21.60;73.10
17452;DHT22;8843;48.838;9.324;2023-07-31T11:13:43;21.80;72.40
17452;DHT22;8843;48.838;9.324;2023-07-31T11:16:12;22.30;71.70
17452;DHT22;8843;48.838;9.324;2023-07-31T11:18:40;22.60;68.20
17452;DHT22;8843;48.838;9.324;2023-07-31T11:21:07;22.60;70.10
17452;DHT22;8843;48.838;9.324;2023-07-31T11:23:36;22.70;70.40
17452;DHT22;8843;48.838;9.324;2023-07-31T11:26:05;22.80;70.70
17452;DHT22;8843;48.838;9.324;2023-07-31T11:28:33;22.90;69.40
17452;DHT22;8843;48.838;9.324;2023-07-31T11:31:00;22.80;69.50
17452;DHT22;8843;48.838;9.324;2023-07-31T11:33:29;22.40;70.00
17452;DHT22;8843;48.838;9.324;2023-07-31T11:35:56;22.50;69.70
17452;DHT22;8843;48.838;9.324;2023-07-31T11:38:24;22.40;69.50
17452;DHT22;8843;48.838;9.324;2023-07-31T11:40:52;22.40;69.70
17452;DHT22;8843;48.838;9.324;2023-07-31T11:43:20;22.50;69.40
17452;DHT22;8843;48.838;9.324;2023-07-31T11:45:48;22.30;71.00
17452;DHT22;8843;48.838;9.324;2023-07-31T11:48:23;22.20;70.10
17452;DHT22;8843;48.838;9.324;2023-07-31T11:50:53;22.20;71.00
17452;DHT22;8843;48.838;9.324;2023-07-31T11:53:25;22.20;69.80
17452;DHT22;8843;48.838;9.324;2023-07-31T11:55:53;22.00;70.40
17452;DHT22;8843;48.838;9.324;2023-07-31T11:58:21;21.90;70.70
17452;DHT22;8843;48.838;9.324;2023-07-31T12:00:48;21.70;71.10
17452;DHT22;8843;48.838;9.324;2023-07-31T12:03:16;21.80;71.00
17452;DHT22;8843;48.838;9.324;2023-07-31T12:05:42;21.90;71.00
17452;DHT22;8843;48.838;9.324;2023-07-31T12:08:11;21.80;70.90
17452;DHT22;8843;48.838;9.324;2023-07-31T12:10:39;21.60;71.30
17452;DHT22;8843;48.838;9.324;2023-07-31T12:13:08;21.70;71.90
17452;DHT22;8843;48.838;9.324;2023-07-31T12:15:40;21.70;71.60
17452;DHT22;8843;48.838;9.324;2023-07-31T12:18:09;21.60;71.60
17452;DHT22;8843;48.838;9.324;2023-07-31T12:20:41;21.60;71.80
17452;DHT22;8843;48.838;9.324;2023-07-31T12:23:14;21.80;72.00
17452;DHT22;8843;48.838;9.324;2023-07-31T12:25:41;21.80;71.30
17452;DHT22;8843;48.838;9.324;2023-07-31T12:28:09;21.70;71.30
17452;DHT22;8843;48.838;9.324;2023-07-31T12:30:38;21.70;71.50
17452;DHT22;8843;48.838;9.324;2023-07-31T12:33:07;21.60;71.90
17452;DHT22;8843;48.838;9.324;2023-07-31T12:35:38;21.70;71.30
17452;DHT22;8843;48.838;9.324;2023-07-31T12:38:05;21.50;72.90
17452;DHT22;8843;48.838;9.324;2023-07-31T12:40:33;21.70;72.30
17452;DHT22;8843;48.838;9.324;2023-07-31T12:43:03;21.70;71.80
17452;DHT22;8843;48.838;9.324;2023-07-31T12:45:30;21.80;71.10
17452;DHT22;8843;48.838;9.324;2023-07-31T12:47:57;21.60;71.40
17452;DHT22;8843;48.838;9.324;2023-07-31T12:50:24;21.80;72.00
17452;DHT22;8843;48.838;9.324;2023-07-31T12:52:52;21.70;71.40
17452;DHT22;8843;48.838;9.324;2023-07-31T12:55:19;21.70;71.50
17452;DHT22;8843;48.838;9.324;2023-07-31T12:57:48;21.60;71.40
17452;DHT22;8843;48.838;9.324;2023-07-31T13:00:15;21.60;71.30
17452;DHT22;8843;48.838;9.324;2023-07-31T13:02:42;21.60;71.40
17452;DHT22;8843;48.838;9.324;2023-07-31T13:05:09;21.50;71.90
17452;DHT22;8843;48.838;9.324;2023-07-31T13:07:36;21.70;71.10
17452;DHT22;8843;48.838;9.324;2023-07-31T13:10:04;21.60;71.40
17452;DHT22;8843;48.838;9.324;2023-07-31T13:12:31;21.80;70.90
17452;DHT22;8843;48.838;9.324;2023-07-31T13:15:00;21.70;71.50
17452;DHT22;8843;48.838;9.324;2023-07-31T13:17:26;21.70;71.40
17452;DHT22;8843;48.838;9.324;2023-07-31T13:19:53;21.70;71.00
17452;DHT22;8843;48.838;9.324;2023-07-31T13:22:20;21.70;71.60
17452;DHT22;8843;48.838;9.324;2023-07-31T13:24:47;21.60;71.10
17452;DHT22;8843;48.838;9.324;2023-07-31T13:27:14;21.50;70.70
17452;DHT22;8843;48.838;9.324;2023-07-31T13:29:44;21.50;71.50
17452;DHT22;8843;48.838;9.324;2023-07-31T13:32:12;21.50;72.10
17452;DHT22;8843;48.838;9.324;2023-07-31T13:34:39;21.50;71.20
17452;DHT22;8843;48.838;9.324;2023-07-31T13:37:06;21.40;71.70
17452;DHT22;8843;48.838;9.324;2023-07-31T13:39:33;21.40;71.20
17452;DHT22;8843;48.838;9.324;2023-07-31T13:42:00;21.30;72.40
17452;DHT22;8843;48.838;9.324;2023-07-31T13:44:26;21.40;71.40
17452;DHT22;8843;48.838;9.324;2023-07-31T13:46:53;21.50;71.60
17452;DHT22;8843;48.838;9.324;2023-07-31T13:49:22;21.40;72.20
17452;DHT22;8843;48.838;9.324;2023-07-31T13:51:49;21.60;71.70
17452;DHT22;8843;48.838;9.324;2023-07-31T13:54:16;21.60;71.20
17452;DHT22;8843;48.838;9.324;2023-07-31T13:56:44;21.80;71.90
17452;DHT22;8843;48.838;9.324;2023-07-31T13:59:11;21.60;71.40
17452;DHT22;8843;48.838;9.324;2023-07-31T14:01:39;21.60;71.70
17452;DHT22;8843;48.838;9.324;2023-07-31T14:04:06;21.70;70.90
17452;DHT22;8843;48.838;9.324;2023-07-31T14:06:34;21.80;71.10
17452;DHT22;8843;48.838;9.324;2023-07-31T14:09:01;21.80;71.00
17452;DHT22;8843;48.838;9.324;2023-07-31T14:11:28;21.80;71.20
17452;DHT22;8843;48.838;9.324;2023-07-31T14:13:55;21.80;71.70
17452;DHT22;8843;48.838;9.324;2023-07-31T14:16:23;21.80;71.70
17452;DHT22;8843;48.838;9.324;2023-07-31T14:18:50;21.80;71.20
17452;DHT22;8843;48.838;9.324;2023-07-31T14:21:19;21.80;71.30
17452;DHT22;8843;48.838;9.324;2023-07-31T14:23:47;21.90;70.70
17452;DHT22;8843;48.838;9.324;2023-07-31T14:26:14;21.80;71.50
17452;DHT22;8843;48.838;9.324;2023-07-31T14:28:41;21.80;71.50
17452;DHT22;8843;48.838;9.324;2023-07-31T14:31:07;21.70;71.10
17452;DHT22;8843;48.838;9.324;2023-07-31T14:33:34;21.70;71.10
17452;DHT22;8843;48.838;9.324;2023-07-31T14:36:02;21.70;71.40
17452;DHT22;8843;48.838;9.324;2023-07-31T14:38:29;21.90;71.10
17452;DHT22;8843;48.838;9.324;2023-07-31T14:40:57;21.80;71.30
17452;DHT22;8843;48.838;9.324;2023-07-31T14:43:24;21.90;71.00
17452;DHT22;8843;48.838;9.324;2023-07-31T14:45:51;21.80;71.10
17452;DHT22;8843;48.838;9.324;2023-07-31T14:48:19;21.70;71.40
17452;DHT22;8843;48.838;9.324;2023-07-31T14:50:46;21.70;71.50
17452;DHT22;8843;48.838;9.324;2023-07-31T14:53:12;21.80;71.40
17452;DHT22;8843;48.838;9.324;2023-07-31T14:55:39;21.90;71.00
17452;DHT22;8843;48.838;9.324;2023-07-31T14:58:07;21.90;71.40
17452;DHT22;8843;48.838;9.324;2023-07-31T15:00:36;21.90;71.30
17452;DHT22;8843;48.838;9.324;2023-07-31T15:03:03;21.80;72.30
17452;DHT22;8843;48.838;9.324;2023-07-31T15:05:30;21.80;71.90
17452;DHT22;8843;48.838;9.324;2023-07-31T15:07:57;21.80;72.40
17452;DHT22;8843;48.838;9.324;2023-07-31T15:10:24;21.80;71.70
17452;DHT22;8843;48.838;9.324;2023-07-31T15:12:51;22.00;70.00
17452;DHT22;8843;48.838;9.324;2023-07-31T15:15:19;22.00;72.80
17452;DHT22;8843;48.838;9.324;2023-07-31T15:17:46;21.90;73.20
17452;DHT22;8843;48.838;9.324;2023-07-31T15:20:13;21.80;73.10
17452;DHT22;8843;48.838;9.324;2023-07-31T15:22:39;21.60;74.60
17452;DHT22;8843;48.838;9.324;2023-07-31T15:25:07;21.60;74.80
17452;DHT22;8843;48.838;9.324;2023-07-31T15:27:35;21.50;74.10
17452;DHT22;8843;48.838;9.324;2023-07-31T15:30:02;21.70;74.60
17452;DHT22;8843;48.838;9.324;2023-07-31T15:32:32;21.70;74.10
17452;DHT22;8843;48.838;9.324;2023-07-31T15:34:59;21.60;74.90
17452;DHT22;8843;48.838;9.324;2023-07-31T15:37:25;21.50;74.90
17452;DHT22;8843;48.838;9.324;2023-07-31T15:39:52;21.60;74.50
17452;DHT22;8843;48.838;9.324;2023-07-31T15:42:19;21.60;74.70
17452;DHT22;8843;48.838;9.324;2023-07-31T15:44:46;21.40;75.80
17452;DHT22;8843;48.838;9.324;2023-07-31T15:47:13;21.30;75.50
17452;DHT22;8843;48.838;9.324;2023-07-31T15:49:41;21.40;74.70